PAMB

Details ICAO PAMB (KMO)
Name MANOKOTAK
Region USA (Alaska)
Timezone America/Anchorage (UTC-8.0)
Plans Departing 0
Arriving 0
Stats Elevation 51 ft / 16 m (AMSL)
Location 58.990195° -159.049924°
Runways 1
Magnetic Variation 12.409° E
Sunrise 2018-05-27 13:43:13 UTC / 2018-05-27 05:43:13 Local
Sunset 2018-05-28 07:26:29 UTC / 2018-05-27 23:26:29 Local
Advertisement - Login to hide

Runways

ID Width Length Bearing (true) Bearing (mag) Surface Threshold Offset Overrun Length
01 60 ft / 18 m 2,715 ft / 828 m 24.82° 12.41° Gravel 0 ft / 0 m 225 ft / 69 m
19 60 ft / 18 m 2,715 ft / 828 m 204.83° 192.42° Gravel 0 ft / 0 m 225 ft / 69 m

Map

Weather


0- 5 10 15 20 25 30 35+ Temperature / ° C

Clouds and Precipitation
Forecast for 2018-05-28 00:00 UTC. Updated 10 minutes ago

Ground ~20,000 ft ~40,000 ft Winds

METAR

PAMB 272256Z AUTO VRB05KT 10SM CLR 13/01 A2990 RMK AO2 SLP132 T01280006 $

TAF

Not found

Frequencies

Recorded 120.62 MHz ASOS
Unicom 122.90 MHz CTAF
Warning: Do not use this data for real-world aviation or navigation. No guarantee of current accuracy is given.